Aeroporto :
LOGIN :

Iscrizione | Disclaimer

   EN    FR    IT 

 










Sommario :    VFR   VFR Marginale   IFR   IFR Intensivo   IFR Molto Intensivo
Visibilità : 
Base nubi : 
>= 8 km
>= 3000ft
5 / 8 km
1000 / 3000 ft
1500m / 5 km
500 / 1000 ft
800 / 1500m
200 / 500 ft
< 800m
< 200 ft
Simboli :   Temporali  Nebbia  Neve Forte  Precipitazioni Forti  Vento > 20 kt
SIGMETs :   Varie  Temporali  Ghiacco  Turbolenza  Onda orograficha  Ceneri Vulcaniche







- Altitudine del aeroporto : 44 ft
- Codice IATA : SOU
- Carte del aeroporto


EGHI - Southampton

ULTIMO METAR :
  • 261950Z 04011KT 010V070 9999 FEW022 17/13 Q1026

METARs OBSOLETI :
  • 261920Z 04011KT 010V070 9999 FEW022 18/13 Q1026
  • 261850Z 05012G22KT 010V090 9999 FEW024 19/13 Q1026
  • 261820Z 05012G22KT 010V090 9999 FEW024 20/14 Q1026
  • 261750Z 05013KT 010V090 9999 FEW024 20/14 Q1025
  • 261720Z 05012KT 010V100 CAVOK 21/14 Q1025
  • 261650Z 05013KT 010V090 9999 FEW028 21/14 Q1025

TAF TAF EGHI
Valido dal 26 a 18 ore il 26 a 22 ore UTC


261701Z 2618/2622 05010KT 9999 FEW025
ATIS : +44 23 8062 7103
Nessun NOTAM noto per questo aeroporto.



MetMap, La meteo Aeronautica in un colpo d'occhio ! - Copyright ORBIFLY Dicembre 2007 - Disclaimer

ORBIFLY MET'MAP TEAM :

Programmazione e sviluppo : Alexandra Zaïnal
Concezione e sviluppo : Baudouin d'Aumeries
Co-Programmazione e sviluppo : Marc-Olivier Méhu
Supporto tecnico e logistico : Manuel Goepfert
Aiuto per la traduzione : Arnaldo La Scala

Contatto : metmap@orbifly.com




FONTI E CREDITI :

   NOAA